createdAt,value
2022-10-07T00:00:19.695Z,99.90
2022-10-07T00:02:51.029Z,99.90
2022-10-07T00:05:22.123Z,99.90
2022-10-07T00:07:54.805Z,99.90
2022-10-07T00:10:23.628Z,99.90
2022-10-07T00:12:52.105Z,99.90
2022-10-07T00:15:24.507Z,99.90
2022-10-07T00:17:57.082Z,99.90
2022-10-07T00:20:27.894Z,99.90
2022-10-07T00:22:56.330Z,99.90
2022-10-07T00:25:24.443Z,99.90
2022-10-07T00:27:53.118Z,99.90
2022-10-07T00:30:23.413Z,99.90
2022-10-07T00:32:51.694Z,99.90
2022-10-07T00:35:26.206Z,99.90
2022-10-07T00:37:59.077Z,99.90
2022-10-07T00:40:32.874Z,99.90
2022-10-07T00:43:20.615Z,99.90
2022-10-07T00:45:51.775Z,99.90
2022-10-07T00:48:27.052Z,99.90
2022-10-07T00:51:00.822Z,99.90
2022-10-07T00:53:35.560Z,99.90
2022-10-07T00:56:04.693Z,99.90
2022-10-07T00:58:42.552Z,99.90
2022-10-07T01:01:12.208Z,99.90
2022-10-07T01:03:43.804Z,99.90
2022-10-07T01:06:12.082Z,99.90
2022-10-07T01:08:41.077Z,99.90
2022-10-07T01:11:36.854Z,99.90
2022-10-07T01:14:30.623Z,99.90
2022-10-07T01:17:36.449Z,99.90
2022-10-07T01:20:25.548Z,99.90
2022-10-07T01:23:34.887Z,99.90
2022-10-07T01:26:33.288Z,99.90
2022-10-07T01:29:28.585Z,99.90
2022-10-07T01:32:18.164Z,99.90
2022-10-07T01:34:49.934Z,99.90
2022-10-07T01:37:23.065Z,99.90
2022-10-07T01:40:08.223Z,99.90
2022-10-07T01:42:39.491Z,99.90
2022-10-07T01:45:21.350Z,99.90
2022-10-07T01:47:54.222Z,99.90
2022-10-07T01:50:30.253Z,99.90
2022-10-07T01:53:39.011Z,99.90
2022-10-07T01:56:46.901Z,99.90
2022-10-07T01:59:40.816Z,99.90
2022-10-07T02:02:30.725Z,99.90
2022-10-07T02:05:27.167Z,99.90
2022-10-07T02:08:21.387Z,99.90
2022-10-07T02:11:30.407Z,99.90
2022-10-07T02:14:24.205Z,99.90
2022-10-07T02:16:59.724Z,99.90
2022-10-07T02:19:42.484Z,99.90
2022-10-07T02:22:32.375Z,99.90
2022-10-07T02:25:05.918Z,99.90
2022-10-07T02:30:26.233Z,99.90
2022-10-07T02:33:08.927Z,99.90
2022-10-07T02:35:53.498Z,99.90
2022-10-07T02:38:25.614Z,99.90
2022-10-07T02:41:32.336Z,99.90
2022-10-07T02:44:12.517Z,99.90
2022-10-07T02:47:17.140Z,99.90
2022-10-07T02:49:56.517Z,99.90
2022-10-07T02:52:40.621Z,99.90
2022-10-07T02:55:26.240Z,99.90
2022-10-07T02:58:06.501Z,99.90
2022-10-07T03:00:44.831Z,99.90
2022-10-07T03:03:29.246Z,99.90
2022-10-07T03:06:09.662Z,99.90
2022-10-07T03:08:49.573Z,99.90
2022-10-07T03:11:22.695Z,99.90
2022-10-07T03:13:52.372Z,99.90
2022-10-07T03:16:20.569Z,99.90
2022-10-07T03:18:52.653Z,99.90
2022-10-07T03:21:43.426Z,99.90
2022-10-07T03:24:18.841Z,99.90
2022-10-07T03:26:52.560Z,99.90
2022-10-07T03:29:20.723Z,99.90
2022-10-07T03:31:55.515Z,99.90
2022-10-07T03:34:27.525Z,99.90
2022-10-07T03:37:00.142Z,99.90
2022-10-07T03:39:31.363Z,99.90
2022-10-07T03:42:10.274Z,99.90
2022-10-07T03:47:27.468Z,99.90
2022-10-07T03:49:57.882Z,99.90
2022-10-07T03:52:28.913Z,99.90
2022-10-07T03:55:02.398Z,99.90
2022-10-07T03:57:52.554Z,99.90
2022-10-07T04:00:28.016Z,99.90
2022-10-07T04:03:01.406Z,99.90
2022-10-07T04:05:34.498Z,99.90
2022-10-07T04:08:05.028Z,99.90
2022-10-07T04:10:46.333Z,99.90
2022-10-07T04:13:17.891Z,99.90
2022-10-07T04:15:49.532Z,99.90
2022-10-07T04:18:17.275Z,99.90
2022-10-07T04:23:33.356Z,99.90
2022-10-07T04:26:00.970Z,99.90
2022-10-07T04:28:30.628Z,99.90
2022-10-07T04:31:12.325Z,99.90
2022-10-07T04:33:50.595Z,99.90
2022-10-07T04:36:33.299Z,99.90
2022-10-07T04:39:19.917Z,99.90
2022-10-07T04:41:59.506Z,99.90
2022-10-07T04:44:34.400Z,99.90
2022-10-07T04:47:07.969Z,99.90
2022-10-07T04:49:39.398Z,99.90
2022-10-07T04:52:10.490Z,99.90
2022-10-07T04:54:42.886Z,99.90
2022-10-07T04:57:16.052Z,99.90
2022-10-07T04:59:45.562Z,99.90
2022-10-07T05:02:19.163Z,99.90
2022-10-07T05:04:52.839Z,99.90
2022-10-07T05:07:21.147Z,99.90
2022-10-07T05:09:49.239Z,99.90
2022-10-07T05:12:20.368Z,99.90
2022-10-07T05:14:55.068Z,99.90
2022-10-07T05:17:28.778Z,99.90
2022-10-07T05:19:56.498Z,99.90
2022-10-07T05:22:25.918Z,99.90
2022-10-07T05:24:56.928Z,99.90
2022-10-07T05:27:26.740Z,99.90
2022-10-07T05:29:57.901Z,99.90
2022-10-07T05:32:26.716Z,99.90
2022-10-07T05:34:57.758Z,99.90
2022-10-07T05:37:26.120Z,99.90
2022-10-07T05:39:57.609Z,99.90
2022-10-07T05:42:27.507Z,99.90
2022-10-07T05:45:00.045Z,99.90
2022-10-07T05:47:33.630Z,99.90
2022-10-07T05:50:04.899Z,99.90
2022-10-07T05:52:32.761Z,99.90
2022-10-07T05:55:04.850Z,99.90
2022-10-07T05:57:34.325Z,99.90
2022-10-07T06:00:04.914Z,99.90
2022-10-07T06:02:52.292Z,99.90
2022-10-07T06:05:32.290Z,99.90
2022-10-07T06:08:03.664Z,99.90
2022-10-07T06:10:53.477Z,99.90
2022-10-07T06:13:33.462Z,99.90
2022-10-07T06:16:08.977Z,99.90
2022-10-07T06:18:38.145Z,99.90
2022-10-07T06:21:10.016Z,99.90
2022-10-07T06:23:38.111Z,99.90
2022-10-07T06:26:08.577Z,99.90
2022-10-07T06:28:41.858Z,99.90
2022-10-07T06:31:16.249Z,99.90
2022-10-07T06:33:46.454Z,99.90
2022-10-07T06:36:14.151Z,99.90
2022-10-07T06:39:04.609Z,99.90
2022-10-07T06:41:37.520Z,99.90
2022-10-07T06:44:20.654Z,99.90
2022-10-07T06:46:50.511Z,99.90
2022-10-07T06:49:22.252Z,99.90
2022-10-07T06:51:52.406Z,99.90
2022-10-07T06:54:21.087Z,99.90
2022-10-07T06:56:49.867Z,99.90
2022-10-07T06:59:20.501Z,99.90
2022-10-07T07:02:00.791Z,99.90
2022-10-07T07:04:34.071Z,99.90
2022-10-07T07:07:04.897Z,99.90
2022-10-07T07:09:39.698Z,99.90
2022-10-07T07:12:09.817Z,99.90
2022-10-07T07:14:41.470Z,99.90
2022-10-07T07:17:18.580Z,99.90
2022-10-07T07:19:54.627Z,99.90
2022-10-07T07:22:24.337Z,99.90
2022-10-07T07:24:54.433Z,99.90
2022-10-07T07:27:27.901Z,99.90
2022-10-07T07:30:01.534Z,99.90
2022-10-07T07:32:35.960Z,99.90
2022-10-07T07:35:06.592Z,99.90
2022-10-07T07:37:36.130Z,99.90
2022-10-07T07:40:05.548Z,99.90
2022-10-07T07:42:35.337Z,99.90
2022-10-07T07:45:06.405Z,99.90
2022-10-07T07:47:35.739Z,99.90
2022-10-07T07:50:05.704Z,99.90
2022-10-07T07:52:35.990Z,99.90
2022-10-07T07:55:06.430Z,99.90
2022-10-07T07:57:35.215Z,99.90
2022-10-07T08:00:07.605Z,99.90
2022-10-07T08:03:00.821Z,99.90
2022-10-07T08:05:30.768Z,99.90
2022-10-07T08:08:02.418Z,99.90
2022-10-07T08:10:35.606Z,99.90
2022-10-07T08:13:04.482Z,99.90
2022-10-07T08:15:36.097Z,99.90
2022-10-07T08:18:07.992Z,99.90
2022-10-07T08:20:37.097Z,99.90
2022-10-07T08:23:07.363Z,99.90
2022-10-07T08:25:34.993Z,99.90
2022-10-07T08:28:06.667Z,99.90
2022-10-07T08:30:35.907Z,99.90
2022-10-07T08:33:04.863Z,99.90
2022-10-07T08:35:35.988Z,99.90
2022-10-07T08:38:05.684Z,99.90
2022-10-07T08:40:37.521Z,99.90
2022-10-07T08:43:09.057Z,99.90
2022-10-07T08:45:37.019Z,99.90
2022-10-07T08:48:10.644Z,99.90
2022-10-07T08:51:05.147Z,99.90
2022-10-07T08:53:37.708Z,99.90
2022-10-07T08:56:14.676Z,99.90
2022-10-07T08:59:09.022Z,99.90
2022-10-07T09:01:45.731Z,99.90
2022-10-07T09:07:31.689Z,99.90
2022-10-07T09:10:27.893Z,99.90
2022-10-07T09:13:05.222Z,99.90
2022-10-07T09:15:43.674Z,99.90
2022-10-07T09:18:13.797Z,99.90
2022-10-07T09:20:47.097Z,99.90
2022-10-07T09:23:16.316Z,99.90
2022-10-07T09:25:44.520Z,99.90
2022-10-07T09:28:19.090Z,99.90
2022-10-07T09:30:46.609Z,99.90
2022-10-07T09:33:20.748Z,99.90
2022-10-07T09:36:00.263Z,99.90
2022-10-07T09:38:31.257Z,99.90
2022-10-07T09:41:45.590Z,99.90
2022-10-07T09:44:29.300Z,99.90
2022-10-07T09:46:59.628Z,99.90
2022-10-07T09:49:53.861Z,99.90
2022-10-07T09:52:23.635Z,99.90
2022-10-07T09:55:15.693Z,99.90
2022-10-07T09:58:02.220Z,99.90
2022-10-07T10:00:30.887Z,99.90
2022-10-07T10:03:08.582Z,99.90
2022-10-07T10:05:39.339Z,99.90
2022-10-07T10:08:21.019Z,99.90
2022-10-07T10:10:57.704Z,99.90
2022-10-07T10:13:44.536Z,99.90
2022-10-07T10:16:37.213Z,99.90
2022-10-07T10:19:27.598Z,99.90
2022-10-07T10:22:07.762Z,99.90
2022-10-07T10:24:58.801Z,99.90
2022-10-07T10:27:35.271Z,99.90
2022-10-07T10:30:21.465Z,99.90
2022-10-07T10:33:17.278Z,99.90
2022-10-07T10:36:20.933Z,99.90
2022-10-07T10:39:36.923Z,99.90
2022-10-07T10:42:12.492Z,99.90
2022-10-07T10:45:18.238Z,99.90
2022-10-07T10:48:07.787Z,99.90
2022-10-07T10:51:10.460Z,99.90
2022-10-07T10:54:18.033Z,99.90
2022-10-07T10:56:48.824Z,99.90
2022-10-07T10:59:36.878Z,99.90
2022-10-07T11:02:44.997Z,99.90
2022-10-07T11:05:43.172Z,99.90
2022-10-07T11:08:27.102Z,99.90
2022-10-07T11:11:31.618Z,99.90
2022-10-07T11:14:12.382Z,99.90
2022-10-07T11:16:52.587Z,99.90
2022-10-07T11:19:40.390Z,99.90
2022-10-07T11:22:24.024Z,99.90
2022-10-07T11:25:00.250Z,99.90
2022-10-07T11:27:33.500Z,99.90
2022-10-07T11:30:16.565Z,99.90
2022-10-07T11:33:14.451Z,99.90
2022-10-07T11:35:53.766Z,99.90
2022-10-07T11:38:31.832Z,99.90
2022-10-07T11:41:40.699Z,99.90
2022-10-07T11:44:21.184Z,99.90
2022-10-07T11:46:50.099Z,99.90
2022-10-07T11:49:46.297Z,99.90
2022-10-07T11:52:27.231Z,99.90
2022-10-07T11:55:07.747Z,99.90
2022-10-07T11:57:45.837Z,99.90
2022-10-07T12:00:33.722Z,99.90
2022-10-07T12:03:21.289Z,99.90
2022-10-07T12:05:57.699Z,99.90
2022-10-07T12:08:42.548Z,99.90
2022-10-07T12:11:23.334Z,99.90
2022-10-07T12:13:53.820Z,99.90
2022-10-07T12:16:36.305Z,99.90
2022-10-07T12:19:12.943Z,99.90
2022-10-07T12:22:08.426Z,99.90
2022-10-07T12:24:37.453Z,99.90
2022-10-07T12:27:29.135Z,99.90
2022-10-07T12:30:06.138Z,99.90
2022-10-07T12:32:47.535Z,99.90
2022-10-07T12:35:37.090Z,99.90
2022-10-07T12:38:18.428Z,99.90
2022-10-07T12:41:07.773Z,99.90
2022-10-07T12:43:38.114Z,99.90
2022-10-07T12:46:11.629Z,99.90
2022-10-07T12:49:04.823Z,99.90
2022-10-07T12:51:41.091Z,99.90
2022-10-07T12:54:41.586Z,99.90
2022-10-07T12:57:18.608Z,99.90
2022-10-07T13:00:08.338Z,99.90
2022-10-07T13:03:28.307Z,99.90
2022-10-07T13:06:36.102Z,99.90
2022-10-07T13:09:48.401Z,99.90
2022-10-07T13:12:29.039Z,99.90
2022-10-07T13:15:20.021Z,99.90
2022-10-07T13:18:28.626Z,99.90
2022-10-07T13:21:23.543Z,99.90
2022-10-07T13:23:56.709Z,99.90
2022-10-07T13:26:28.076Z,99.90
2022-10-07T13:29:00.784Z,99.90
2022-10-07T13:31:33.448Z,99.90
2022-10-07T13:34:20.049Z,99.90
2022-10-07T13:36:53.731Z,99.90
2022-10-07T13:39:31.558Z,99.90
2022-10-07T13:42:03.065Z,99.90
2022-10-07T13:44:33.545Z,99.90
2022-10-07T13:47:19.872Z,99.90
2022-10-07T13:49:53.374Z,99.90
2022-10-07T13:52:39.143Z,99.90
2022-10-07T13:55:31.469Z,99.90
2022-10-07T13:58:04.762Z,99.90
2022-10-07T14:00:42.312Z,99.90
2022-10-07T14:03:21.770Z,99.90
2022-10-07T14:05:59.251Z,99.90
2022-10-07T14:08:35.151Z,99.90
2022-10-07T14:11:22.219Z,99.90
2022-10-07T14:13:54.481Z,99.90
2022-10-07T14:19:09.582Z,99.90
2022-10-07T14:21:42.010Z,99.90
2022-10-07T14:24:10.685Z,99.90
2022-10-07T14:26:47.435Z,99.90
2022-10-07T14:29:48.771Z,99.20
2022-10-07T14:32:45.784Z,97.30
2022-10-07T14:35:24.641Z,96.10
2022-10-07T14:37:59.173Z,96.50
2022-10-07T14:40:27.399Z,98.30
2022-10-07T14:42:54.834Z,99.90
2022-10-07T14:45:32.189Z,99.90
2022-10-07T14:48:00.795Z,99.90
2022-10-07T14:50:31.303Z,99.90
2022-10-07T14:53:04.441Z,99.90
2022-10-07T14:55:40.677Z,99.90
2022-10-07T14:58:13.746Z,97.70
2022-10-07T15:00:44.018Z,97.00
2022-10-07T15:03:13.749Z,96.00
2022-10-07T15:05:48.296Z,97.70
2022-10-07T15:08:15.944Z,99.80
2022-10-07T15:10:46.804Z,99.90
2022-10-07T15:13:15.444Z,99.90
2022-10-07T15:15:45.049Z,99.90
2022-10-07T15:18:15.194Z,99.90
2022-10-07T15:20:46.019Z,99.90
2022-10-07T15:23:14.858Z,99.90
2022-10-07T15:25:46.617Z,99.90
2022-10-07T15:28:16.164Z,99.90
2022-10-07T15:30:45.009Z,99.90
2022-10-07T15:33:17.933Z,99.90
2022-10-07T15:35:48.208Z,99.90
2022-10-07T15:38:18.385Z,99.90
2022-10-07T15:40:59.698Z,99.90
2022-10-07T15:43:29.361Z,99.90
2022-10-07T15:45:59.393Z,99.90
2022-10-07T15:48:29.353Z,99.90
2022-10-07T15:50:57.641Z,99.90
2022-10-07T15:53:26.168Z,99.90
2022-10-07T15:55:58.245Z,99.90
2022-10-07T15:58:30.510Z,99.90
2022-10-07T16:03:52.422Z,99.90
2022-10-07T16:06:23.686Z,99.90
2022-10-07T16:08:53.795Z,99.90
2022-10-07T16:11:24.270Z,99.90
2022-10-07T16:13:56.819Z,99.90
2022-10-07T16:16:28.726Z,99.90
2022-10-07T16:18:58.555Z,99.90
2022-10-07T16:21:31.228Z,99.90
2022-10-07T16:24:03.079Z,99.90
2022-10-07T16:26:35.932Z,99.90
2022-10-07T16:29:28.180Z,99.90
2022-10-07T16:31:59.051Z,99.90
2022-10-07T16:34:31.303Z,99.90
2022-10-07T16:37:00.301Z,99.90
2022-10-07T16:39:29.789Z,99.90
2022-10-07T16:42:00.083Z,99.90
2022-10-07T16:44:30.459Z,99.90
2022-10-07T16:49:41.274Z,99.90
2022-10-07T16:54:55.404Z,99.90
2022-10-07T16:57:26.580Z,99.90
2022-10-07T16:59:58.161Z,99.90
2022-10-07T17:02:30.423Z,99.90
2022-10-07T17:04:59.341Z,99.90
2022-10-07T17:07:32.887Z,99.90
2022-10-07T17:10:14.472Z,99.90
2022-10-07T17:12:44.257Z,99.90
2022-10-07T17:15:12.148Z,99.90
2022-10-07T17:17:41.779Z,99.90
2022-10-07T17:20:12.218Z,99.90
2022-10-07T17:22:43.370Z,99.90
2022-10-07T17:25:12.537Z,99.90
2022-10-07T17:30:24.461Z,99.90
2022-10-07T17:32:54.708Z,99.90
2022-10-07T17:35:24.423Z,99.90
2022-10-07T17:37:54.864Z,99.90
2022-10-07T17:40:24.426Z,99.90
2022-10-07T17:42:53.481Z,99.90
2022-10-07T17:45:24.042Z,99.90
2022-10-07T17:47:54.946Z,99.90
2022-10-07T17:50:24.807Z,99.90
2022-10-07T17:52:54.587Z,99.90
2022-10-07T17:55:25.434Z,99.90
2022-10-07T17:57:54.174Z,99.90
2022-10-07T18:00:27.027Z,99.90
2022-10-07T18:02:57.807Z,99.90
2022-10-07T18:05:27.579Z,99.90
2022-10-07T18:07:58.241Z,99.90
2022-10-07T18:10:29.445Z,99.90
2022-10-07T18:13:20.633Z,99.90
2022-10-07T18:16:00.542Z,99.90
2022-10-07T18:18:31.724Z,99.90
2022-10-07T18:21:10.082Z,99.90
2022-10-07T18:23:39.271Z,99.90
2022-10-07T18:26:10.515Z,99.90
2022-10-07T18:28:42.761Z,99.90
2022-10-07T18:31:15.874Z,99.90
2022-10-07T18:33:46.211Z,99.90
2022-10-07T18:36:23.890Z,99.90
2022-10-07T18:39:05.703Z,99.90
2022-10-07T18:41:35.287Z,99.90
2022-10-07T18:44:08.550Z,99.90
2022-10-07T18:46:42.988Z,99.90
2022-10-07T18:49:15.371Z,99.90
2022-10-07T18:51:52.545Z,99.90
2022-10-07T18:54:22.901Z,99.90
2022-10-07T18:56:53.983Z,99.90
2022-10-07T18:59:25.222Z,99.90
2022-10-07T19:01:56.218Z,99.90
2022-10-07T19:04:43.558Z,99.90
2022-10-07T19:07:13.151Z,99.90
2022-10-07T19:09:46.244Z,99.90
2022-10-07T19:12:36.936Z,99.90
2022-10-07T19:15:08.650Z,99.90
2022-10-07T19:20:22.514Z,99.90
2022-10-07T19:22:51.214Z,99.90
2022-10-07T19:25:44.214Z,99.90
2022-10-07T19:28:15.866Z,99.90
2022-10-07T19:30:53.821Z,99.90
2022-10-07T19:33:22.142Z,99.90
2022-10-07T19:38:47.070Z,99.90
2022-10-07T19:41:20.662Z,99.90
2022-10-07T19:43:51.702Z,99.90
2022-10-07T19:46:22.624Z,99.90
2022-10-07T19:49:00.759Z,99.90
2022-10-07T19:51:35.825Z,99.90
2022-10-07T19:54:13.350Z,99.90
2022-10-07T19:56:46.963Z,99.90
2022-10-07T19:59:17.562Z,99.90
2022-10-07T20:01:47.651Z,99.90
2022-10-07T20:07:17.423Z,99.90
2022-10-07T20:09:46.922Z,99.90
2022-10-07T20:12:19.000Z,99.90
2022-10-07T20:14:50.052Z,99.90
2022-10-07T20:17:20.907Z,99.90
2022-10-07T20:19:51.679Z,99.90
2022-10-07T20:22:21.630Z,99.90
2022-10-07T20:24:53.209Z,99.90
2022-10-07T20:27:26.571Z,99.90
2022-10-07T20:30:01.635Z,99.90
2022-10-07T20:32:36.515Z,99.90
2022-10-07T20:35:07.307Z,99.90
2022-10-07T20:37:36.295Z,99.90
2022-10-07T20:40:25.630Z,99.90
2022-10-07T20:42:56.927Z,99.90
2022-10-07T20:45:25.694Z,99.90
2022-10-07T20:47:58.284Z,99.90
2022-10-07T20:50:28.097Z,99.90
2022-10-07T20:52:58.571Z,99.90
2022-10-07T20:55:27.103Z,99.90
2022-10-07T20:57:57.822Z,99.90
2022-10-07T21:00:29.772Z,99.90
2022-10-07T21:03:00.813Z,99.90
2022-10-07T21:05:31.131Z,99.90
2022-10-07T21:08:01.177Z,99.90
2022-10-07T21:10:31.452Z,99.90
2022-10-07T21:13:02.964Z,99.90
2022-10-07T21:15:30.968Z,99.90
2022-10-07T21:18:01.621Z,99.90
2022-10-07T21:20:32.710Z,99.90
2022-10-07T21:23:04.025Z,99.90
2022-10-07T21:26:02.692Z,99.90
2022-10-07T21:28:40.286Z,99.90
2022-10-07T21:31:12.092Z,99.90
2022-10-07T21:33:40.443Z,99.90
2022-10-07T21:36:19.667Z,99.90
2022-10-07T21:38:55.933Z,99.90
2022-10-07T21:41:26.311Z,99.90
2022-10-07T21:43:58.310Z,99.90
2022-10-07T21:46:27.646Z,99.90
2022-10-07T21:48:56.721Z,99.90
2022-10-07T21:51:27.060Z,99.90
2022-10-07T21:53:57.663Z,99.90
2022-10-07T21:56:29.346Z,99.90
2022-10-07T21:58:59.609Z,99.90
2022-10-07T22:01:27.275Z,99.90
2022-10-07T22:03:59.971Z,99.90
2022-10-07T22:06:47.495Z,99.90
2022-10-07T22:09:17.394Z,99.90
2022-10-07T22:11:44.717Z,99.90
2022-10-07T22:14:13.007Z,99.90
2022-10-07T22:16:41.237Z,99.90
2022-10-07T22:19:08.688Z,99.90
2022-10-07T22:21:40.036Z,99.90
2022-10-07T22:24:09.106Z,99.90
2022-10-07T22:26:40.230Z,99.90
2022-10-07T22:29:11.064Z,99.90
2022-10-07T22:31:38.723Z,99.90
2022-10-07T22:34:06.727Z,99.90
2022-10-07T22:36:35.350Z,99.90
2022-10-07T22:39:02.920Z,99.90
2022-10-07T22:41:30.987Z,99.90
2022-10-07T22:43:59.555Z,99.90
2022-10-07T22:46:28.423Z,99.90
2022-10-07T22:48:58.156Z,99.90
2022-10-07T22:51:29.298Z,99.90
2022-10-07T22:53:57.452Z,99.90
2022-10-07T22:56:28.010Z,99.90
2022-10-07T22:59:00.868Z,99.90
2022-10-07T23:01:30.262Z,99.90
2022-10-07T23:04:00.846Z,99.90
2022-10-07T23:06:31.726Z,99.90
2022-10-07T23:09:00.379Z,99.90
2022-10-07T23:11:30.178Z,99.90
2022-10-07T23:13:58.094Z,99.90
2022-10-07T23:16:29.449Z,99.90
2022-10-07T23:18:58.733Z,99.90
2022-10-07T23:21:32.394Z,99.90
2022-10-07T23:24:05.949Z,99.90
2022-10-07T23:26:36.057Z,99.90
2022-10-07T23:29:03.733Z,99.90
2022-10-07T23:31:32.335Z,99.90
2022-10-07T23:34:03.007Z,99.90
2022-10-07T23:36:31.294Z,99.90
2022-10-07T23:39:00.593Z,99.90
2022-10-07T23:41:30.276Z,99.90
2022-10-07T23:44:00.030Z,99.90
2022-10-07T23:46:32.954Z,99.90
2022-10-07T23:49:00.863Z,99.90
2022-10-07T23:51:29.544Z,99.90
2022-10-07T23:53:57.560Z,99.90
2022-10-07T23:56:25.201Z,99.90
2022-10-07T23:58:52.689Z,99.90
